createdAt,value
2022-09-02T00:02:08.900Z,57.58
2022-09-02T00:04:36.051Z,57.59
2022-09-02T00:07:03.170Z,57.87
2022-09-02T00:09:30.941Z,57.80
2022-09-02T00:11:58.021Z,57.46
2022-09-02T00:14:32.503Z,57.20
2022-09-02T00:17:01.050Z,57.91
2022-09-02T00:19:30.479Z,57.98
2022-09-02T00:22:00.597Z,57.86
2022-09-02T00:24:28.340Z,58.39
2022-09-02T00:26:56.521Z,58.35
2022-09-02T00:29:25.373Z,58.44
2022-09-02T00:31:52.559Z,58.56
2022-09-02T00:34:21.013Z,58.42
2022-09-02T00:36:48.178Z,58.27
2022-09-02T00:39:15.469Z,58.88
2022-09-02T00:41:44.298Z,58.61
2022-09-02T00:44:15.221Z,58.84
2022-09-02T00:46:43.089Z,58.77
2022-09-02T00:49:29.466Z,58.60
2022-09-02T00:52:05.173Z,58.27
2022-09-02T00:54:36.824Z,58.34
2022-09-02T00:57:13.595Z,58.12
2022-09-02T00:59:54.073Z,57.94
2022-09-02T01:02:24.386Z,57.26
2022-09-02T01:04:56.968Z,57.32
2022-09-02T01:07:30.694Z,57.40
2022-09-02T01:10:02.179Z,57.65
2022-09-02T01:12:31.770Z,57.63
2022-09-02T01:14:59.763Z,57.11
2022-09-02T01:17:27.041Z,57.10
2022-09-02T01:19:59.812Z,57.13
2022-09-02T01:22:31.069Z,57.39
2022-09-02T01:25:04.955Z,56.82
2022-09-02T01:27:32.229Z,56.49
2022-09-02T01:30:00.798Z,56.02
2022-09-02T01:32:30.234Z,55.83
2022-09-02T01:34:58.092Z,55.78
2022-09-02T01:37:26.871Z,55.83
2022-09-02T01:39:54.521Z,55.53
2022-09-02T01:42:21.733Z,55.70
2022-09-02T01:44:49.124Z,55.91
2022-09-02T01:47:23.100Z,55.62
2022-09-02T01:49:51.536Z,55.25
2022-09-02T01:52:22.218Z,54.89
2022-09-02T01:54:49.838Z,55.20
2022-09-02T01:57:17.424Z,54.88
2022-09-02T01:59:46.404Z,55.24
2022-09-02T02:02:20.472Z,55.08
2022-09-02T02:04:48.830Z,54.81
2022-09-02T02:07:18.545Z,54.81
2022-09-02T02:09:45.907Z,54.78
2022-09-02T02:12:16.365Z,54.81
2022-09-02T02:14:43.949Z,54.16
2022-09-02T02:17:11.544Z,54.62
2022-09-02T02:19:40.483Z,54.31
2022-09-02T02:22:07.793Z,54.71
2022-09-02T02:24:34.833Z,54.25
2022-09-02T02:27:02.311Z,54.43
2022-09-02T02:29:30.371Z,54.35
2022-09-02T02:31:58.145Z,54.36
2022-09-02T02:34:25.685Z,54.40
2022-09-02T02:36:52.789Z,54.16
2022-09-02T02:39:21.003Z,54.27
2022-09-02T02:41:48.133Z,54.09
2022-09-02T02:44:16.591Z,53.41
2022-09-02T02:46:44.115Z,53.50
2022-09-02T02:49:12.081Z,53.63
2022-09-02T02:51:39.688Z,53.78
2022-09-02T02:54:07.025Z,53.90
2022-09-02T02:56:34.954Z,53.35
2022-09-02T02:59:04.205Z,53.44
2022-09-02T03:01:33.984Z,53.88
2022-09-02T03:04:01.258Z,53.65
2022-09-02T03:06:29.952Z,53.59
2022-09-02T03:08:58.184Z,53.23
2022-09-02T03:11:28.591Z,53.60
2022-09-02T03:13:57.080Z,53.63
2022-09-02T03:16:24.398Z,53.36
2022-09-02T03:18:54.122Z,53.83
2022-09-02T03:21:21.302Z,53.86
2022-09-02T03:23:48.808Z,54.03
2022-09-02T03:26:21.720Z,54.31
2022-09-02T03:28:49.646Z,54.21
2022-09-02T03:31:21.991Z,54.76
2022-09-02T03:33:49.791Z,54.65
2022-09-02T03:36:30.239Z,55.81
2022-09-02T03:39:00.807Z,55.21
2022-09-02T03:41:29.568Z,55.19
2022-09-02T03:43:58.021Z,55.56
2022-09-02T03:46:25.936Z,55.61
2022-09-02T03:48:53.239Z,55.31
2022-09-02T03:51:23.117Z,55.83
2022-09-02T03:53:50.534Z,55.68
2022-09-02T03:56:19.431Z,55.41
2022-09-02T03:58:50.105Z,55.40
2022-09-02T04:01:23.699Z,55.06
2022-09-02T04:03:52.110Z,55.75
2022-09-02T04:06:21.732Z,55.69
2022-09-02T04:08:49.970Z,55.81
2022-09-02T04:11:21.019Z,55.47
2022-09-02T04:13:52.761Z,55.43
2022-09-02T04:16:29.271Z,56.04
2022-09-02T04:19:02.232Z,55.50
2022-09-02T04:21:33.543Z,56.03
2022-09-02T04:24:01.378Z,55.71
2022-09-02T04:26:29.365Z,56.14
2022-09-02T04:28:58.151Z,56.77
2022-09-02T04:31:30.193Z,56.59
2022-09-02T04:33:59.688Z,56.59
2022-09-02T04:36:29.029Z,56.62
2022-09-02T04:39:01.122Z,56.63
2022-09-02T04:41:31.591Z,55.90
2022-09-02T04:44:03.152Z,56.35
2022-09-02T04:46:35.241Z,55.89
2022-09-02T04:49:06.056Z,55.69
2022-09-02T04:51:34.298Z,56.31
2022-09-02T04:54:04.021Z,56.70
2022-09-02T04:56:35.443Z,55.77
2022-09-02T04:59:04.481Z,55.73
2022-09-02T05:01:34.719Z,56.31
2022-09-02T05:04:09.779Z,56.62
2022-09-02T05:06:44.390Z,56.15
2022-09-02T05:09:16.970Z,56.06
2022-09-02T05:11:48.913Z,56.83
2022-09-02T05:14:17.608Z,56.55
2022-09-02T05:16:45.867Z,56.71
2022-09-02T05:19:16.322Z,56.80
2022-09-02T05:21:48.041Z,56.86
2022-09-02T05:24:26.569Z,57.51
2022-09-02T05:26:56.095Z,57.56
2022-09-02T05:29:24.400Z,58.29
2022-09-02T05:31:52.489Z,58.46
2022-09-02T05:34:22.641Z,57.53
2022-09-02T05:36:56.832Z,58.13
2022-09-02T05:39:26.055Z,57.80
2022-09-02T05:41:54.100Z,57.67
2022-09-02T05:44:21.221Z,56.72
2022-09-02T05:46:49.212Z,56.75
2022-09-02T05:49:18.025Z,56.10
2022-09-02T05:51:51.319Z,56.43
2022-09-02T05:54:30.406Z,56.41
2022-09-02T05:57:02.263Z,56.08
2022-09-02T05:59:31.794Z,55.54
2022-09-02T06:02:00.149Z,56.52
2022-09-02T06:04:29.105Z,55.34
2022-09-02T06:06:57.307Z,56.89
2022-09-02T06:09:24.799Z,56.41
2022-09-02T06:11:54.376Z,57.17
2022-09-02T06:14:26.110Z,56.50
2022-09-02T06:16:56.335Z,56.61
2022-09-02T06:19:35.942Z,56.27
2022-09-02T06:22:05.127Z,55.92
2022-09-02T06:24:35.786Z,56.10
2022-09-02T06:27:08.502Z,55.80
2022-09-02T06:29:38.703Z,55.89
2022-09-02T06:32:09.005Z,55.50
2022-09-02T06:34:37.257Z,55.64
2022-09-02T06:37:04.571Z,55.88
2022-09-02T06:39:43.910Z,55.79
2022-09-02T06:42:16.666Z,55.25
2022-09-02T06:45:03.971Z,55.27
2022-09-02T06:47:32.276Z,55.44
2022-09-02T06:50:00.548Z,54.81
2022-09-02T06:52:27.859Z,55.08
2022-09-02T06:54:55.478Z,55.10
2022-09-02T06:57:22.842Z,54.03
2022-09-02T07:00:02.026Z,54.08
2022-09-02T07:02:32.677Z,54.69
2022-09-02T07:05:15.642Z,54.38
2022-09-02T07:07:49.756Z,53.70
2022-09-02T07:10:16.935Z,54.32
2022-09-02T07:12:49.570Z,53.32
2022-09-02T07:15:18.059Z,54.05
2022-09-02T07:17:45.542Z,52.96
2022-09-02T07:20:18.762Z,53.57
2022-09-02T07:22:56.863Z,53.83
2022-09-02T07:25:26.500Z,53.45
2022-09-02T07:27:54.798Z,52.88
2022-09-02T07:30:23.089Z,51.88
2022-09-02T07:32:56.948Z,51.28
2022-09-02T07:35:26.667Z,51.01
2022-09-02T07:37:54.264Z,50.72
2022-09-02T07:40:22.950Z,50.47
2022-09-02T07:42:51.037Z,50.42
2022-09-02T07:45:20.251Z,50.14
2022-09-02T07:47:49.300Z,49.96
2022-09-02T07:50:20.290Z,50.45
2022-09-02T07:52:57.615Z,51.32
2022-09-02T07:55:26.706Z,51.18
2022-09-02T07:57:55.475Z,51.11
2022-09-02T08:00:27.878Z,49.58
2022-09-02T08:03:01.892Z,48.60
2022-09-02T08:05:35.835Z,48.65
2022-09-02T08:08:04.814Z,48.49
2022-09-02T08:10:32.389Z,48.80
2022-09-02T08:13:06.893Z,48.98
2022-09-02T08:15:36.140Z,49.53
2022-09-02T08:18:06.966Z,49.48
2022-09-02T08:20:36.227Z,50.85
2022-09-02T08:23:11.980Z,50.14
2022-09-02T08:25:46.009Z,50.65
2022-09-02T08:28:13.131Z,52.06
2022-09-02T08:30:40.973Z,52.19
2022-09-02T08:33:08.079Z,52.25
2022-09-02T08:35:35.267Z,52.68
2022-09-02T08:38:02.407Z,52.76
2022-09-02T08:40:42.131Z,52.08
2022-09-02T08:43:31.680Z,51.67
2022-09-02T08:46:04.157Z,51.39
2022-09-02T08:48:54.605Z,52.89
2022-09-02T08:51:37.198Z,54.11
2022-09-02T08:54:10.386Z,54.97
2022-09-02T08:56:39.281Z,56.49
2022-09-02T08:59:07.322Z,58.10
2022-09-02T09:01:40.397Z,57.99
2022-09-02T09:04:32.548Z,59.05
2022-09-02T09:07:14.910Z,59.89
2022-09-02T09:10:11.087Z,58.85
2022-09-02T09:12:54.514Z,59.89
2022-09-02T09:15:34.039Z,59.25
2022-09-02T09:18:04.483Z,60.34
2022-09-02T09:20:49.438Z,59.84
2022-09-02T09:23:34.184Z,58.47
2022-09-02T09:26:14.975Z,59.92
2022-09-02T09:28:48.247Z,60.04
2022-09-02T09:31:22.116Z,59.67
2022-09-02T09:34:15.336Z,59.33
2022-09-02T09:36:42.516Z,58.98
2022-09-02T09:39:28.583Z,58.33
2022-09-02T09:42:14.756Z,57.95
2022-09-02T09:44:47.145Z,58.17
2022-09-02T09:47:19.742Z,58.15
2022-09-02T09:49:51.906Z,56.97
2022-09-02T09:52:26.831Z,57.38
2022-09-02T09:55:25.535Z,56.26
2022-09-02T09:57:54.361Z,56.10
2022-09-02T10:00:26.389Z,57.03
2022-09-02T10:02:57.204Z,56.57
2022-09-02T10:05:30.061Z,55.50
2022-09-02T10:08:00.725Z,55.22
2022-09-02T10:10:29.715Z,55.80
2022-09-02T10:13:23.685Z,54.86
2022-09-02T10:16:16.309Z,55.64
2022-09-02T10:18:51.618Z,56.68
2022-09-02T10:21:35.086Z,57.21
2022-09-02T10:24:09.728Z,57.00
2022-09-02T10:26:51.223Z,56.38
2022-09-02T10:29:37.102Z,56.79
2022-09-02T10:32:13.129Z,57.56
2022-09-02T10:34:53.860Z,57.37
2022-09-02T10:37:25.188Z,56.06
2022-09-02T10:40:19.611Z,58.24
2022-09-02T10:43:05.648Z,56.62
2022-09-02T10:45:45.409Z,56.96
2022-09-02T10:48:30.224Z,56.26
2022-09-02T10:51:13.997Z,57.08
2022-09-02T10:53:56.320Z,55.36
2022-09-02T10:56:32.877Z,54.81
2022-09-02T10:59:08.833Z,55.47
2022-09-02T11:01:46.782Z,54.56
2022-09-02T11:04:40.170Z,56.18
2022-09-02T11:07:11.413Z,57.87
2022-09-02T11:09:46.322Z,59.37
2022-09-02T11:12:21.496Z,59.76
2022-09-02T11:14:48.805Z,60.80
2022-09-02T11:17:42.688Z,61.97
2022-09-02T11:20:25.028Z,61.48
2022-09-02T11:23:03.593Z,61.77
2022-09-02T11:25:41.713Z,63.54
2022-09-02T11:28:45.103Z,64.23
2022-09-02T11:31:39.374Z,62.76
2022-09-02T11:34:22.022Z,65.49
2022-09-02T11:36:49.742Z,66.40
2022-09-02T11:39:54.159Z,65.80
2022-09-02T11:43:17.243Z,62.67
2022-09-02T11:46:16.762Z,62.89
2022-09-02T11:49:44.285Z,62.76
2022-09-02T11:55:21.023Z,62.12
2022-09-02T11:57:58.515Z,64.69
2022-09-02T12:00:54.587Z,63.03
2022-09-02T12:03:46.541Z,63.07
2022-09-02T12:06:21.891Z,63.82
2022-09-02T12:08:51.597Z,62.28
2022-09-02T12:11:31.264Z,61.04
2022-09-02T12:14:01.811Z,62.02
2022-09-02T12:16:40.687Z,62.03
2022-09-02T12:19:09.030Z,62.04
2022-09-02T12:21:54.095Z,62.02
2022-09-02T12:24:21.785Z,61.75
2022-09-02T12:26:48.775Z,61.59
2022-09-02T12:29:19.800Z,61.70
2022-09-02T12:31:53.346Z,63.31
2022-09-02T12:34:20.630Z,62.57
2022-09-02T12:36:57.279Z,63.03
2022-09-02T12:39:30.650Z,63.60
2022-09-02T12:42:12.100Z,62.97
2022-09-02T12:44:53.431Z,62.73
2022-09-02T12:47:22.163Z,62.00
2022-09-02T12:50:10.936Z,61.88
2022-09-02T12:52:47.989Z,60.93
2022-09-02T12:55:18.421Z,61.17
2022-09-02T12:57:48.748Z,61.74
2022-09-02T13:00:34.854Z,63.09
2022-09-02T13:03:22.316Z,63.66
2022-09-02T13:05:52.472Z,62.70
2022-09-02T13:08:37.504Z,63.00
2022-09-02T13:11:26.449Z,62.69
2022-09-02T13:14:08.776Z,62.39
2022-09-02T13:16:41.935Z,61.91
2022-09-02T13:19:21.132Z,61.85
2022-09-02T13:22:13.662Z,61.22
2022-09-02T13:25:16.582Z,61.02
2022-09-02T13:28:17.692Z,61.50
2022-09-02T13:31:02.680Z,61.73
2022-09-02T13:33:30.250Z,61.59
2022-09-02T13:35:59.651Z,61.38
2022-09-02T13:38:29.521Z,61.68
2022-09-02T13:40:56.962Z,61.32
2022-09-02T13:43:27.164Z,60.33
2022-09-02T13:46:02.154Z,59.33
2022-09-02T13:48:32.503Z,60.16
2022-09-02T13:51:09.285Z,59.62
2022-09-02T13:53:53.907Z,58.43
2022-09-02T13:56:27.543Z,58.12
2022-09-02T13:58:58.985Z,58.46
2022-09-02T14:01:34.098Z,58.43
2022-09-02T14:04:06.390Z,58.37
2022-09-02T14:06:40.725Z,58.33
2022-09-02T14:09:19.645Z,57.83
2022-09-02T14:11:48.632Z,56.49
2022-09-02T14:14:20.013Z,57.10
2022-09-02T14:16:47.311Z,56.84
2022-09-02T14:19:17.674Z,57.09
2022-09-02T14:21:56.577Z,58.07
2022-09-02T14:24:30.093Z,57.46
2022-09-02T14:27:00.971Z,56.59
2022-09-02T14:29:32.278Z,56.62
2022-09-02T14:32:16.385Z,56.15
2022-09-02T14:34:45.793Z,56.26
2022-09-02T14:37:21.469Z,57.42
2022-09-02T14:40:12.103Z,57.96
2022-09-02T14:42:57.522Z,57.12
2022-09-02T14:45:30.995Z,56.03
2022-09-02T14:48:16.941Z,56.33
2022-09-02T14:50:44.160Z,56.18
2022-09-02T14:53:19.759Z,54.81
2022-09-02T14:55:50.555Z,54.82
2022-09-02T14:58:19.010Z,56.04
2022-09-02T15:00:56.028Z,55.21
2022-09-02T15:03:23.824Z,55.67
2022-09-02T15:05:52.515Z,55.19
2022-09-02T15:08:20.996Z,55.21
2022-09-02T15:10:49.300Z,55.67
2022-09-02T15:13:35.360Z,55.04
2022-09-02T15:16:03.687Z,55.33
2022-09-02T15:18:31.406Z,55.94
2022-09-02T15:20:58.651Z,55.73
2022-09-02T15:23:27.386Z,55.77
2022-09-02T15:25:56.046Z,55.04
2022-09-02T15:28:23.319Z,54.34
2022-09-02T15:30:57.968Z,54.72
2022-09-02T15:33:25.212Z,53.69
2022-09-02T15:35:52.400Z,54.37
2022-09-02T15:38:19.767Z,55.49
2022-09-02T15:40:47.000Z,55.76
2022-09-02T15:43:14.336Z,55.60
2022-09-02T15:45:50.828Z,56.23
2022-09-02T15:48:17.990Z,56.20
2022-09-02T15:50:46.588Z,56.12
2022-09-02T15:53:15.327Z,56.58
2022-09-02T15:55:45.567Z,55.97
2022-09-02T15:58:15.475Z,55.82
2022-09-02T16:00:43.884Z,56.78
2022-09-02T16:03:11.496Z,55.27
2022-09-02T16:05:38.800Z,55.66
2022-09-02T16:08:05.944Z,55.68
2022-09-02T16:10:36.715Z,56.32
2022-09-02T16:13:04.713Z,56.32
2022-09-02T16:15:34.341Z,56.01
2022-09-02T16:18:01.962Z,56.73
2022-09-02T16:20:29.254Z,56.43
2022-09-02T16:22:56.736Z,55.58
2022-09-02T16:25:25.471Z,55.74
2022-09-02T16:27:52.806Z,56.48
2022-09-02T16:30:20.115Z,56.58
2022-09-02T16:32:47.952Z,56.25
2022-09-02T16:35:15.194Z,56.90
2022-09-02T16:37:43.000Z,57.85
2022-09-02T16:40:11.785Z,57.45
2022-09-02T16:42:39.120Z,57.57
2022-09-02T16:45:06.914Z,56.96
2022-09-02T16:47:34.640Z,57.16
2022-09-02T16:50:02.337Z,57.17
2022-09-02T16:52:34.944Z,57.43
2022-09-02T16:55:02.030Z,57.27
2022-09-02T16:57:32.762Z,57.98
2022-09-02T17:00:00.004Z,57.76
2022-09-02T17:02:29.209Z,57.28
2022-09-02T17:04:56.644Z,57.18
2022-09-02T17:07:23.666Z,57.14
2022-09-02T17:09:51.159Z,56.79
2022-09-02T17:12:18.462Z,57.83
2022-09-02T17:14:46.262Z,57.95
2022-09-02T17:17:17.423Z,58.18
2022-09-02T17:19:44.820Z,58.11
2022-09-02T17:22:12.487Z,58.14
2022-09-02T17:24:42.143Z,58.41
2022-09-02T17:27:09.587Z,59.19
2022-09-02T17:29:52.214Z,58.57
2022-09-02T17:32:19.968Z,58.50
2022-09-02T17:34:49.776Z,59.05
2022-09-02T17:37:17.325Z,58.87
2022-09-02T17:39:46.268Z,58.82
2022-09-02T17:42:15.887Z,58.68
2022-09-02T17:44:43.792Z,58.58
2022-09-02T17:47:20.594Z,58.72
2022-09-02T17:49:49.042Z,58.85
2022-09-02T17:52:22.832Z,58.67
2022-09-02T17:54:52.917Z,58.63
2022-09-02T17:57:46.637Z,59.20
2022-09-02T18:00:27.008Z,59.08
2022-09-02T18:03:35.106Z,58.86
2022-09-02T18:06:28.148Z,58.67
2022-09-02T18:08:58.593Z,58.27
2022-09-02T18:11:26.890Z,59.13
2022-09-02T18:14:16.813Z,58.50
2022-09-02T18:16:52.208Z,58.73
2022-09-02T18:19:38.297Z,58.70
2022-09-02T18:22:44.544Z,59.24
2022-09-02T18:25:38.779Z,58.58
2022-09-02T18:28:33.289Z,58.39
2022-09-02T18:31:12.483Z,57.94
2022-09-02T18:34:05.926Z,58.23
2022-09-02T18:36:43.219Z,57.95
2022-09-02T18:39:29.119Z,58.05
2022-09-02T18:42:21.891Z,58.06
2022-09-02T18:45:06.906Z,58.00
2022-09-02T18:47:49.298Z,57.31
2022-09-02T18:50:47.603Z,56.79
2022-09-02T18:53:19.736Z,56.81
2022-09-02T18:55:48.982Z,57.28
2022-09-02T18:58:44.376Z,56.83
2022-09-02T19:01:23.773Z,56.25
2022-09-02T19:03:52.070Z,56.22
2022-09-02T19:06:25.480Z,56.80
2022-09-02T19:09:04.878Z,56.67
2022-09-02T19:11:37.024Z,56.45
2022-09-02T19:14:19.322Z,56.88
2022-09-02T19:16:46.880Z,57.03
2022-09-02T19:19:16.663Z,56.87
2022-09-02T19:21:50.195Z,56.67
2022-09-02T19:24:31.682Z,56.23
2022-09-02T19:27:05.495Z,56.01
2022-09-02T19:29:35.104Z,56.90
2022-09-02T19:32:02.678Z,56.19
2022-09-02T19:34:35.699Z,55.91
2022-09-02T19:37:04.991Z,56.31
2022-09-02T19:39:34.903Z,56.37
2022-09-02T19:42:02.086Z,57.06
2022-09-02T19:44:29.375Z,56.50
2022-09-02T19:47:56.075Z,56.64
2022-09-02T19:49:44.089Z,56.31
2022-09-02T19:52:11.943Z,56.42
2022-09-02T19:54:41.195Z,56.55
2022-09-02T19:57:10.513Z,56.73
2022-09-02T19:59:40.457Z,56.48
2022-09-02T20:02:07.632Z,56.59
2022-09-02T20:04:35.169Z,56.60
2022-09-02T20:07:02.266Z,56.78
2022-09-02T20:09:29.614Z,57.17
2022-09-02T20:11:57.022Z,56.51
2022-09-02T20:14:24.936Z,57.45
2022-09-02T20:17:00.715Z,57.22
2022-09-02T20:19:28.320Z,57.40
2022-09-02T20:21:55.459Z,57.26
2022-09-02T20:24:30.989Z,57.20
2022-09-02T20:27:23.400Z,57.61
2022-09-02T20:30:02.526Z,57.44
2022-09-02T20:32:49.384Z,57.70
2022-09-02T20:35:34.370Z,58.12
2022-09-02T20:38:17.995Z,58.65
2022-09-02T20:41:16.354Z,58.09
2022-09-02T20:44:07.220Z,57.48
2022-09-02T20:46:53.733Z,58.03
2022-09-02T20:49:21.407Z,58.08
2022-09-02T20:51:59.424Z,58.77
2022-09-02T20:54:53.811Z,58.50
2022-09-02T20:57:42.252Z,58.51
2022-09-02T21:00:15.011Z,58.47
2022-09-02T21:03:11.161Z,58.13
2022-09-02T21:05:44.093Z,58.77
2022-09-02T21:08:22.376Z,58.27
2022-09-02T21:10:53.294Z,59.50
2022-09-02T21:13:27.662Z,59.49
2022-09-02T21:15:57.474Z,59.31
2022-09-02T21:18:35.981Z,59.02
2022-09-02T21:21:14.671Z,59.25
2022-09-02T21:24:02.622Z,59.50
2022-09-02T21:26:51.321Z,59.84
2022-09-02T21:29:42.245Z,59.60
2022-09-02T21:32:15.614Z,59.64
2022-09-02T21:35:12.741Z,59.82
2022-09-02T21:37:43.163Z,60.29
2022-09-02T21:40:13.339Z,59.90
2022-09-02T21:43:08.075Z,60.03
2022-09-02T21:46:03.831Z,60.15
2022-09-02T21:48:47.193Z,60.35
2022-09-02T21:51:37.067Z,60.35
2022-09-02T21:54:46.862Z,60.05
2022-09-02T21:57:42.641Z,60.21
2022-09-02T22:00:12.041Z,60.00
2022-09-02T22:03:04.311Z,59.73
2022-09-02T22:05:52.365Z,60.38
2022-09-02T22:08:19.532Z,60.53
2022-09-02T22:11:02.037Z,60.47
2022-09-02T22:13:34.035Z,60.60
2022-09-02T22:16:19.615Z,60.59
2022-09-02T22:18:52.415Z,60.34
2022-09-02T22:21:22.482Z,60.25
2022-09-02T22:23:50.938Z,60.98
2022-09-02T22:26:41.257Z,60.04
2022-09-02T22:29:37.777Z,59.79
2022-09-02T22:32:09.005Z,59.64
2022-09-02T22:34:43.764Z,59.88
2022-09-02T22:37:18.885Z,60.15
2022-09-02T22:39:52.498Z,59.96
2022-09-02T22:42:38.343Z,59.78
2022-09-02T22:45:37.237Z,60.52
2022-09-02T22:48:35.317Z,60.00
2022-09-02T22:51:27.065Z,59.81
2022-09-02T22:53:54.114Z,60.28
2022-09-02T22:56:41.617Z,60.46
2022-09-02T22:59:25.506Z,59.93
2022-09-02T23:02:18.240Z,60.30
2022-09-02T23:05:30.922Z,59.78
2022-09-02T23:07:57.976Z,59.97
2022-09-02T23:10:27.111Z,59.86
2022-09-02T23:13:14.205Z,60.24
2022-09-02T23:15:49.666Z,59.66
2022-09-02T23:18:52.246Z,60.21
2022-09-02T23:21:42.590Z,60.24
2022-09-02T23:24:18.399Z,59.99
2022-09-02T23:27:03.702Z,60.03
2022-09-02T23:29:35.766Z,59.82
2022-09-02T23:32:30.234Z,60.33
2022-09-02T23:35:22.340Z,60.29
2022-09-02T23:38:17.012Z,60.86
2022-09-02T23:40:46.719Z,60.69
2022-09-02T23:43:19.346Z,60.64
2022-09-02T23:45:48.285Z,60.88
2022-09-02T23:48:44.029Z,61.00
2022-09-02T23:51:19.346Z,60.97
2022-09-02T23:54:12.281Z,61.25
2022-09-02T23:56:49.598Z,61.41
2022-09-02T23:59:39.272Z,61.63
